Flight Track Log - Related Links

Times and Time Zones

All times are in EDT time to prevent confusion due to time zone crossing. See the EGF2976 flight status page for this flight to view local times or setup timezone preferences in your user account.

Time Position Orientation Groundspeed Altitude Reporting Facility
EDT Latitude Longitude Course Direction KTS MPH feet Rate Location/Type
Fri 08:30:42 PM 39.2500 -94.7167 201° Southwest 153 176 3,400  Level Kansas City TRACON
Fri 08:31:49 PM 39.2000 -94.6667 142° Southeast 294 338 5,800 2,417 Climbing Kansas City TRACON
Fri 08:32:00 PM 39.4572 -94.3495 45° Northeast  Level Estimated
Fri 08:33:00 PM 39.5101 -94.2276 43° Northeast  Level Estimated
Fri 08:33:06 PM 39.2308 -94.5767 66° East 293 337 9,200  Level Kansas City Center
Fri 08:34:00 PM 39.5629 -94.1056 38° Northeast  Level Estimated
Fri 08:34:07 PM 39.3147 -94.5092 32° Northeast 330 380 10,600  Level Kansas City Center
Fri 08:35:00 PM 39.6156 -93.9834 44° Northeast  Level Estimated
Fri 08:35:09 PM 39.4022 -94.4375 32° Northeast 384 442 12,300  Level Kansas City Center
Fri 08:36:11 PM 39.5081 -94.3517 32° Northeast 401 461 14,500 1,984 Climbing Kansas City Center
Fri 08:37:13 PM 39.6006 -94.2750 33° Northeast 411 473 16,400 1,645 Climbing Kansas City Center
Fri 08:38:15 PM 39.7122 -94.1828 32° Northeast 425 489 17,900 1,610 Climbing Kansas City Center
Fri 08:39:16 PM 39.8094 -94.1031 32° Northeast 432 497 19,700 1,659 Climbing Kansas City Center
Fri 08:40:18 PM 39.8597 -93.9481 67° East 453 521 21,300 1,403 Climbing Kansas City Center
Fri 08:41:20 PM 39.9058 -93.7939 69° East 461 531 22,600 1,161 Climbing Kansas City Center
Fri 08:42:22 PM 39.9536 -93.6353 69° East 469 540 23,700 1,024 Climbing Kansas City Center
Fri 08:43:23 PM 40.0033 -93.4761 68° East 478 550 24,700 1,073 Climbing Kansas City Center
Fri 08:44:25 PM 40.0603 -93.2792 69° East 485 558 25,900 1,065 Climbing Kansas City Center
Fri 08:45:27 PM 40.1119 -93.1142 68° East 492 566 26,900 968 Climbing Kansas City Center
Fri 08:46:29 PM 40.1619 -92.9494 68° East 494 568 27,900 1,073 Climbing Kansas City Center
Fri 08:47:30 PM 40.2156 -92.7611 70° East 494 568 29,100 1,171 Climbing Kansas City Center
Fri 08:48:32 PM 40.2619 -92.6019 69° East 492 566 30,300 1,113 Climbing Kansas City Center
Fri 08:49:34 PM 40.3108 -92.4444 68° East 489 563 31,400 1,122 Climbing Kansas City Center
Fri 08:50:35 PM 40.3597 -92.2689 70° East 489 563 32,600 1,122 Climbing Kansas City Center
Fri 08:51:37 PM 40.4069 -92.1064 69° East 483 556 33,700 1,016 Climbing Kansas City Center
Fri 08:52:39 PM 40.4533 -91.9419 70° East 483 556 34,700 629 Climbing Kansas City Center
Fri 08:53:41 PM 40.5089 -91.7456 70° East 483 556 35,000 146 Climbing Kansas City Center
Fri 08:54:42 PM 40.5547 -91.5828 70° East 481 554 35,000  Level Kansas City Center
Fri 08:55:44 PM 40.6008 -91.4183 70° East 482 555 35,000  Level Kansas City Center
Fri 08:56:46 PM 40.6478 -91.2481 70° East 484 557 35,000  Level Kansas City Center
Fri 08:57:47 PM 40.6936 -91.0794 70° East 488 562 35,000  Level Kansas City Center
Fri 08:58:17 PM 40.7233 -90.9783 69° East 490 564 35,000  Level Chicago Center
Fri 08:59:19 PM 40.7686 -90.8119 70° East 484 557 35,000 -339 Level Chicago Center
Fri 09:00:21 PM 40.8139 -90.6442 70° East 482 555 34,300 -581 Descending Chicago Center
Fri 09:01:23 PM 40.8636 -90.4828 68° East 475 547 33,800 -1,056 Descending Chicago Center
Fri 09:02:26 PM 40.9211 -90.3164 65° Northeast 487 560 32,100 -1,872 Descending Chicago Center
Fri 09:03:28 PM 40.9853 -90.1244 66° East 509 586 29,900 -1,984 Descending Chicago Center
Fri 09:04:30 PM 41.0364 -89.9689 66° East 507 583 28,000 -1,887 Descending Chicago Center
Fri 09:05:32 PM 41.0906 -89.8008 67° East 494 568 26,000 -1,887 Descending Chicago Center
Fri 09:06:34 PM 41.1572 -89.6008 66° East 490 564 24,100 -1,258 Descending Chicago Center
Fri 09:07:36 PM 41.2228 -89.4378 62° Northeast 497 572 23,400 -1,306 Descending Chicago Center
Fri 09:08:38 PM 41.2867 -89.2792 62° Northeast 489 563 21,400 -2,226 Descending Chicago Center
Fri 09:09:40 PM 41.3500 -89.1208 62° Northeast 475 547 18,800 -2,274 Descending Chicago Center
Fri 09:10:42 PM 41.4064 -88.9792 62° Northeast 443 510 16,700 -2,129 Descending Chicago Center
Fri 09:11:44 PM 41.4569 -88.8494 62° Northeast 402 463 14,400 -2,177 Descending Chicago Center
Fri 09:12:46 PM 41.5067 -88.7250 62° Northeast 385 443 12,200 -1,161 Descending Chicago Center
Fri 09:13:48 PM 41.5669 -88.5808 61° Northeast 375 432 12,000 -576 Descending Chicago Center
Fri 09:14:51 PM 41.6278 -88.4703 54° Northeast 371 427 11,000 -960 Descending Chicago Center
Fri 09:15:53 PM 41.6861 -88.3625 54° Northeast 360 414 10,000 -532 Descending Chicago Center
Fri 09:16:55 PM 41.7406 -88.2586 55° Northeast 343 395 9,900 -968 Descending Chicago Center
Fri 09:17:57 PM 41.7881 -88.1711 54° Northeast 293 337 8,000 -1,403 Descending Chicago Center
Fri 09:18:59 PM 41.8344 -88.0842 54° Northeast 288 331 7,000 -400 Descending Chicago Center
Fri 09:20:27 PM 41.8833 -87.9333 66° East 296 341 7,000 -195 Level Chicago TRACON
Fri 09:21:33 PM 41.8833 -87.8167 90° East 250 288 6,500 -1,190 Descending Chicago TRACON
Fri 09:22:33 PM 41.8833 -87.7167 90° East 253 291 4,500 -1,250 Descending Chicago TRACON
Fri 09:23:33 PM 41.9333 -87.7000 14° North 230 265 4,000 -900 Descending Chicago TRACON
Fri 09:24:33 PM 41.9667 -87.7667 304° West 181 208 2,700 -1,050 Descending Chicago TRACON
Fri 09:25:33 PM 41.9667 -87.8167 270° West 127 146 1,900 -694 Descending Chicago TRACON
Fri 09:26:34 PM 41.9667 -87.8500 270° West 120 138 1,300 -590 Descending Chicago TRACON

Login

Don't have an account? Register now (free) for customized features, flight alerts, and more!